Time;durP1;ratioP1;P1;durP2;ratioP2;P2;SDS_P1;SDS_P2;PMS_P1;PMS_P2;Temp;Humidity;BMP_temperature;BMP_pressure;BME280_temperature;BME280_humidity;BME280_pressure;Samples;Min_cycle;Max_cycle;Signal;HPM_P1;HPM_P2
2022/03/26 00:01:49;;;;;;;80.97;37.17;;;;;;;1.63;61.37;99856.99;2120041;84;21010;-83
2022/03/26 00:04:50;;;;;;;77.60;36.70;;;;;;;1.62;61.40;99851.75;2110206;84;21375;-83
2022/03/26 00:07:50;;;;;;;226.90;46.60;;;;;;;1.59;61.38;99859.77;2118834;83;21053;-82
2022/03/26 00:10:51;;;;;;;99.77;40.47;;;;;;;1.59;61.46;99853.34;2102293;84;20975;-83
2022/03/26 00:13:51;;;;;;;79.77;37.27;;;;;;;1.62;61.59;99853.93;2101065;84;21068;-81
2022/03/26 00:16:52;;;;;;;77.43;39.13;;;;;;;1.61;61.61;99849.58;2110574;84;21314;-82
2022/03/26 00:19:53;;;;;;;78.60;39.30;;;;;;;1.62;61.82;99856.50;2120824;84;20970;-82
2022/03/26 00:22:53;;;;;;;82.10;38.77;;;;;;;1.59;61.77;99845.62;2110984;84;20907;-83
2022/03/26 00:25:55;;;;;;;88.23;41.37;;;;;;;1.57;61.88;99853.64;2119522;84;20997;-83
2022/03/26 00:28:55;;;;;;;84.33;40.30;;;;;;;1.57;61.94;99851.46;2119353;84;21385;-84
2022/03/26 00:31:56;;;;;;;79.50;42.27;;;;;;;1.59;61.91;99841.76;2110284;83;21010;-82
2022/03/26 00:34:57;;;;;;;201.53;49.00;;;;;;;1.62;61.95;99840.17;2110030;84;20959;-80
2022/03/26 00:37:58;;;;;;;99.50;42.87;;;;;;;1.66;61.98;99831.45;2110063;84;20962;-81
2022/03/26 00:40:58;;;;;;;90.77;43.80;;;;;;;1.73;62.04;99838.76;2107553;84;20982;-82
2022/03/26 00:43:59;;;;;;;95.77;46.03;;;;;;;1.77;62.13;99827.89;2095377;84;21378;-82
2022/03/26 00:47:00;;;;;;;111.13;42.10;;;;;;;1.80;62.05;99827.19;2094350;84;21445;-82
2022/03/26 00:50:00;;;;;;;111.23;43.90;;;;;;;1.81;61.99;99828.57;2091478;84;20919;-82
2022/03/26 00:53:01;;;;;;;91.47;42.60;;;;;;;1.77;62.01;99827.89;2092610;84;21378;-81
2022/03/26 00:56:01;;;;;;;89.37;44.67;;;;;;;1.84;62.12;99819.75;2094456;84;21343;-82
2022/03/26 00:59:02;;;;;;;83.13;43.93;;;;;;;1.86;62.07;99816.88;2094974;85;20943;-82
2022/03/26 01:02:03;;;;;;;81.43;41.53;;;;;;;1.91;62.19;99816.75;2092278;84;21015;-83
2022/03/26 01:05:04;;;;;;;84.03;43.57;;;;;;;1.92;62.13;99812.49;2093690;84;21064;-82
2022/03/26 01:08:05;;;;;;;87.27;42.20;;;;;;;1.88;62.39;99806.66;2093224;85;20986;-82
2022/03/26 01:11:05;;;;;;;81.97;43.07;;;;;;;1.86;62.21;99801.82;2091845;85;20983;-82
2022/03/26 01:14:05;;;;;;;82.67;43.40;;;;;;;1.89;62.32;99803.30;2091604;84;20948;-82
2022/03/26 01:17:07;;;;;;;86.33;41.63;;;;;;;1.93;62.50;99799.22;2091712;85;20947;-81
2022/03/26 01:20:08;;;;;;;82.50;41.00;;;;;;;1.96;62.45;99801.98;2094118;85;21043;-82
2022/03/26 01:23:09;;;;;;;81.17;41.70;;;;;;;1.97;62.54;99800.79;2093807;85;20975;-82
2022/03/26 01:26:10;;;;;;;85.73;39.90;;;;;;;1.95;62.59;99802.37;2095323;84;21385;-82
2022/03/26 01:29:10;;;;;;;87.67;42.33;;;;;;;1.96;62.81;99808.42;2094850;84;20951;-79
2022/03/26 01:32:11;;;;;;;95.60;43.87;;;;;;;1.91;63.13;99801.70;2092412;84;21002;-82
2022/03/26 01:35:11;;;;;;;90.73;41.97;;;;;;;1.88;63.31;99805.38;2094720;85;20975;-81
2022/03/26 01:38:12;;;;;;;82.53;40.90;;;;;;;1.89;63.45;99801.61;2093397;85;20947;-81
2022/03/26 01:41:13;;;;;;;79.07;39.47;;;;;;;1.87;63.29;99799.34;2093356;83;20951;-80
2022/03/26 01:44:14;;;;;;;80.10;40.90;;;;;;;1.82;63.71;99796.88;2111842;84;20959;-82
2022/03/26 01:47:14;;;;;;;78.43;42.67;;;;;;;1.82;63.89;99794.31;2117567;84;20987;-81
2022/03/26 01:50:15;;;;;;;84.80;41.83;;;;;;;1.80;63.98;99789.86;2117882;84;20987;-81
2022/03/26 01:53:16;;;;;;;101.47;41.17;;;;;;;1.80;64.12;99784.31;2120087;84;20936;-80
2022/03/26 01:56:16;;;;;;;92.13;43.10;;;;;;;1.83;64.43;99787.08;2117741;84;20947;-80
2022/03/26 01:59:17;;;;;;;79.63;40.73;;;;;;;1.85;64.34;99789.34;2113216;84;20996;-81
2022/03/26 02:02:18;;;;;;;78.33;39.97;;;;;;;1.86;64.56;99791.12;2117370;84;21413;-81
2022/03/26 02:05:18;;;;;;;162.47;45.60;;;;;;;1.90;64.40;99786.66;2109310;84;20939;-81
2022/03/26 02:08:19;;;;;;;95.27;43.07;;;;;;;1.87;64.14;99789.44;2118740;84;21257;-83
2022/03/26 02:11:19;;;;;;;108.27;43.53;;;;;;;1.84;64.03;99790.14;2119567;84;21042;-82
2022/03/26 02:14:20;;;;;;;143.57;73.27;;;;;;;1.80;64.35;99783.03;2119640;84;21360;-82
2022/03/26 02:17:21;;;;;;;95.17;47.37;;;;;;;1.80;64.26;99781.74;2115800;84;20943;-81
2022/03/26 02:20:22;;;;;;;84.77;42.67;;;;;;;1.76;64.39;99781.06;2113186;84;20975;-82
2022/03/26 02:23:23;;;;;;;89.00;43.33;;;;;;;1.80;64.63;99779.56;2116671;84;21014;-82
2022/03/26 02:26:26;;;;;;;98.33;44.93;;;;;;;1.82;64.89;99780.15;2111109;84;21013;-82
2022/03/26 02:29:28;;;;;;;121.57;45.40;;;;;;;1.86;65.18;99776.97;2124121;84;21065;-81
2022/03/26 02:32:28;;;;;;;78.50;40.73;;;;;;;1.91;65.18;99779.81;2124595;84;21457;-81
2022/03/26 02:35:29;;;;;;;77.27;39.77;;;;;;;1.94;65.00;99775.25;2125644;84;20943;-80
2022/03/26 02:38:29;;;;;;;104.60;40.83;;;;;;;1.95;64.89;99780.49;2119272;84;20971;-80
2022/03/26 02:41:31;;;;;;;83.77;41.57;;;;;;;1.96;64.86;99787.81;2109888;84;20959;-81
2022/03/26 02:44:31;;;;;;;82.00;40.87;;;;;;;2.01;65.09;99779.97;2110118;83;20979;-82
2022/03/26 02:47:32;;;;;;;147.60;43.10;;;;;;;2.02;65.30;99772.73;2110697;84;20975;-81
2022/03/26 02:50:32;;;;;;;78.67;39.97;;;;;;;2.04;65.18;99775.01;2117626;84;20931;-82
2022/03/26 02:53:33;;;;;;;78.27;40.03;;;;;;;2.04;65.14;99778.47;2117974;84;21354;-81
2022/03/26 02:56:33;;;;;;;80.33;40.13;;;;;;;2.01;65.47;99773.14;2117932;84;20920;-81
2022/03/26 02:59:34;;;;;;;82.17;38.57;;;;;;;1.95;65.62;99774.45;2111812;83;20983;-83
2022/03/26 03:02:34;;;;;;;83.73;39.67;;;;;;;1.86;65.30;99774.39;2119233;84;21055;-81
2022/03/26 03:05:35;;;;;;;96.30;42.13;;;;;;;1.83;65.68;99774.60;2118612;84;20908;-81
2022/03/26 03:08:35;;;;;;;104.20;45.27;;;;;;;1.84;65.78;99776.38;2112831;84;20950;-81
2022/03/26 03:11:35;;;;;;;90.07;43.17;;;;;;;1.93;66.07;99770.90;2117039;84;21298;-81
2022/03/26 03:14:37;;;;;;;85.43;41.90;;;;;;;2.00;65.82;99769.19;2111613;84;20978;-82
2022/03/26 03:17:38;;;;;;;83.47;40.80;;;;;;;2.10;66.02;99767.65;2119962;84;20959;-80
2022/03/26 03:20:38;;;;;;;95.13;41.43;;;;;;;2.23;65.76;99770.16;2111402;84;20958;-82
2022/03/26 03:23:39;;;;;;;80.53;39.70;;;;;;;2.24;65.52;99763.80;2117728;84;20974;-81
2022/03/26 03:26:39;;;;;;;71.00;39.03;;;;;;;2.26;65.83;99756.56;2118082;84;21044;-81
2022/03/26 03:29:40;;;;;;;91.53;45.70;;;;;;;2.27;65.27;99750.21;2117709;84;21027;-82
2022/03/26 03:32:41;;;;;;;86.20;42.03;;;;;;;2.30;65.56;99754.25;2120895;84;20986;-81
2022/03/26 03:35:41;;;;;;;74.40;38.80;;;;;;;2.32;65.32;99759.50;2113874;84;20912;-82
2022/03/26 03:38:42;;;;;;;70.40;38.40;;;;;;;2.28;64.93;99754.56;2109233;83;20991;-82
2022/03/26 03:41:42;;;;;;;75.70;39.73;;;;;;;2.21;64.84;99752.43;2117708;83;20991;-81
2022/03/26 03:44:43;;;;;;;71.93;38.10;;;;;;;2.19;65.24;99751.05;2100298;83;20955;-81
2022/03/26 03:47:43;;;;;;;82.17;39.87;;;;;;;2.19;65.39;99743.32;2097967;84;20951;-82
2022/03/26 03:50:44;;;;;;;74.50;38.03;;;;;;;2.16;65.16;99748.30;2101587;83;20943;-82
2022/03/26 03:53:45;;;;;;;72.60;37.73;;;;;;;2.14;65.47;99743.85;2095457;84;21386;-81
2022/03/26 03:56:45;;;;;;;84.40;37.73;;;;;;;2.15;65.86;99739.19;2097250;83;20959;-82
2022/03/26 03:59:45;;;;;;;128.77;41.07;;;;;;;2.14;65.75;99736.13;2100388;84;20958;-82
2022/03/26 04:02:46;;;;;;;508.10;70.53;;;;;;;2.19;65.95;99736.00;2091425;84;21017;-79
2022/03/26 04:05:46;;;;;;;116.07;42.97;;;;;;;2.19;66.02;99725.30;2096092;84;20983;-80
2022/03/26 04:08:47;;;;;;;77.63;37.87;;;;;;;2.26;65.96;99723.08;2099291;84;21372;-81
2022/03/26 04:11:47;;;;;;;80.80;39.60;;;;;;;2.27;65.95;99718.02;2103014;83;21346;-83
2022/03/26 04:14:48;;;;;;;80.53;36.53;;;;;;;2.27;65.85;99718.02;2094298;83;20990;-83
2022/03/26 04:17:52;;;;;;;80.77;36.13;;;;;;;2.30;66.10;99715.61;2103722;83;20947;-82
2022/03/26 04:20:51;;;;;;;73.07;36.13;;;;;;;2.30;65.87;99711.75;2098193;84;21054;-82
2022/03/26 04:23:51;;;;;;;72.03;36.50;;;;;;;2.23;65.68;99704.46;2099902;83;20967;-82
2022/03/26 04:26:52;;;;;;;65.43;35.97;;;;;;;2.19;65.80;99705.97;2100934;84;20995;-83
2022/03/26 04:29:53;;;;;;;72.83;38.03;;;;;;;2.22;66.17;99710.41;2098944;83;20963;-82
2022/03/26 04:32:53;;;;;;;71.73;38.20;;;;;;;2.27;66.57;99708.11;2102244;84;21098;-82
2022/03/26 04:35:54;;;;;;;76.77;36.93;;;;;;;2.40;66.69;99696.42;2103025;83;20915;-82
2022/03/26 04:38:54;;;;;;;74.30;37.50;;;;;;;2.50;66.83;99694.86;2100073;84;21015;-82
2022/03/26 04:41:55;;;;;;;71.60;38.23;;;;;;;2.61;66.83;99689.05;2101920;84;21032;-80
2022/03/26 04:44:55;;;;;;;76.27;38.33;;;;;;;2.74;66.83;99690.23;2128018;84;20959;-82
2022/03/26 04:47:56;;;;;;;73.40;37.13;;;;;;;2.85;66.65;99701.63;2114536;84;20983;-82
2022/03/26 04:50:56;;;;;;;86.83;40.30;;;;;;;2.94;66.38;99694.80;2124968;81;21024;-82
2022/03/26 04:53:57;;;;;;;83.73;39.67;;;;;;;3.06;66.42;99693.30;2116220;84;20927;-82
2022/03/26 04:56:57;;;;;;;76.23;40.43;;;;;;;3.13;66.18;99683.80;2121195;83;20990;-82
2022/03/26 04:59:58;;;;;;;74.53;39.23;;;;;;;3.20;66.15;99684.61;2116563;84;20975;-82
2022/03/26 05:02:58;;;;;;;135.47;75.13;;;;;;;3.32;66.07;99689.54;2126147;83;21042;-84
2022/03/26 05:05:59;;;;;;;110.97;58.63;;;;;;;4.58;72.78;99692.65;2118387;84;21429;-84
2022/03/26 05:08:59;;;;;;;73.83;41.97;;;;;;;7.92;67.51;99676.30;2124551;84;21408;-82
2022/03/26 05:12:00;;;;;;;70.03;40.17;;;;;;;7.78;59.94;99677.91;2124959;84;21416;-83
2022/03/26 05:15:01;;;;;;;63.97;36.97;;;;;;;7.06;58.91;99682.11;2124539;84;21073;-82
2022/03/26 05:18:04;;;;;;;63.63;36.03;;;;;;;6.50;58.91;99689.37;2106171;84;21106;-83
2022/03/26 05:21:07;;;;;;;68.67;35.67;;;;;;;6.15;59.29;99690.89;2126648;84;21334;-82
2022/03/26 05:24:07;;;;;;;66.87;35.07;;;;;;;5.94;59.70;99693.42;2124893;84;21101;-80
2022/03/26 05:27:08;;;;;;;71.70;39.00;;;;;;;5.79;60.13;99688.83;2121219;84;21001;-83
2022/03/26 05:30:09;;;;;;;66.13;37.27;;;;;;;5.69;60.43;99687.53;2118293;84;21398;-82
2022/03/26 05:33:09;;;;;;;90.13;46.23;;;;;;;5.69;60.65;99696.19;2115639;84;21029;-83
2022/03/26 05:36:10;;;;;;;65.93;39.87;;;;;;;5.78;60.76;99695.72;2126344;84;20989;-81
2022/03/26 05:39:11;;;;;;;66.77;37.17;;;;;;;5.82;60.58;99695.03;2119289;84;20951;-82
2022/03/26 05:42:12;;;;;;;66.00;36.87;;;;;;;5.88;60.64;99685.34;2118961;82;21030;-83
2022/03/26 05:45:12;;;;;;;75.30;39.17;;;;;;;5.96;60.57;99684.00;2118805;83;21373;-83
2022/03/26 05:48:13;;;;;;;72.23;39.17;;;;;;;6.05;60.51;99689.17;2118917;84;20963;-83
2022/03/26 05:51:13;;;;;;;71.13;40.17;;;;;;;6.15;60.39;99687.89;2117934;84;21005;-82
2022/03/26 05:54:14;;;;;;;68.07;39.53;;;;;;;6.24;60.31;99692.17;2118968;84;20998;-83
2022/03/26 05:57:14;;;;;;;64.97;36.83;;;;;;;6.38;60.18;99691.05;2105943;84;21017;-83
2022/03/26 06:00:15;;;;;;;70.47;39.73;;;;;;;6.53;59.78;99687.31;2116324;84;20998;-81
2022/03/26 06:03:16;;;;;;;74.67;41.07;;;;;;;6.66;59.46;99696.06;2117056;84;21077;-83
2022/03/26 06:06:17;;;;;;;67.80;39.97;;;;;;;6.74;59.33;99689.48;2117751;84;21464;-82
2022/03/26 06:09:17;;;;;;;65.00;38.13;;;;;;;6.78;59.14;99693.09;2120254;83;21058;-82
2022/03/26 06:12:18;;;;;;;67.03;38.63;;;;;;;6.85;59.13;99686.91;2112686;84;20989;-84
2022/03/26 06:15:19;;;;;;;70.80;39.87;;;;;;;7.00;58.83;99695.33;2114501;84;21326;-83
2022/03/26 06:18:20;;;;;;;74.23;40.57;;;;;;;7.11;58.45;99695.75;2122918;84;21110;-83
2022/03/26 06:21:20;;;;;;;68.67;38.53;;;;;;;7.22;58.44;99700.06;2125822;84;21034;-83
2022/03/26 06:24:21;;;;;;;72.73;39.20;;;;;;;7.43;58.42;99686.59;2125513;84;20958;-82
2022/03/26 06:27:21;;;;;;;65.50;36.83;;;;;;;7.62;57.94;99690.75;2121048;84;21413;-83
2022/03/26 06:30:22;;;;;;;70.20;39.17;;;;;;;9.22;57.61;99687.16;2113649;83;21006;-84
2022/03/26 06:33:23;;;;;;;58.33;31.30;;;;;;;9.15;55.63;99682.59;2119509;83;20986;-83
2022/03/26 06:36:23;;;;;;;65.60;37.63;;;;;;;10.01;59.83;99675.15;2120161;84;20935;-82
2022/03/26 06:39:24;;;;;;;71.60;40.47;;;;;;;10.76;52.04;99678.02;2114915;84;20981;-83
2022/03/26 06:42:24;;;;;;;58.83;32.53;;;;;;;10.11;51.58;99674.55;2111675;83;21010;-83
2022/03/26 06:45:25;;;;;;;60.03;36.00;;;;;;;9.84;55.17;99677.72;2093566;84;21011;-82
2022/03/26 06:48:26;;;;;;;67.07;35.83;;;;;;;10.12;52.27;99677.62;2092879;85;21015;-84
2022/03/26 06:51:26;;;;;;;69.00;38.33;;;;;;;9.77;52.17;99675.78;2095388;85;20971;-84
2022/03/26 06:54:27;;;;;;;73.57;37.73;;;;;;;9.54;52.90;99674.70;2094861;84;21006;-83
2022/03/26 06:57:28;;;;;;;59.60;35.57;;;;;;;9.42;53.27;99673.42;2095703;85;20994;-82
2022/03/26 07:00:28;;;;;;;67.50;40.50;;;;;;;9.44;53.64;99669.14;2094863;84;20974;-83
2022/03/26 07:03:30;;;;;;;77.17;43.87;;;;;;;9.53;53.48;99668.99;2094221;84;21019;-81
2022/03/26 07:06:31;;;;;;;69.93;41.53;;;;;;;9.63;53.95;99668.87;2095070;85;21070;-81
2022/03/26 07:09:31;;;;;;;68.37;38.83;;;;;;;9.85;53.64;99665.14;2093826;84;21050;-82
2022/03/26 07:12:31;;;;;;;75.50;43.60;;;;;;;10.06;53.29;99667.03;2094063;85;21002;-81
2022/03/26 07:15:35;;;;;;;64.87;38.80;;;;;;;10.19;52.95;99663.90;2094666;85;21023;-82
2022/03/26 07:18:36;;;;;;;64.70;36.97;;;;;;;10.35;52.75;99669.55;2093926;84;21018;-82
2022/03/26 07:21:37;;;;;;;66.27;38.37;;;;;;;10.52;52.36;99665.67;2093381;85;21440;-82
2022/03/26 07:24:38;;;;;;;68.30;37.63;;;;;;;10.87;51.97;99656.50;2093365;84;21027;-82
2022/03/26 07:27:39;;;;;;;52.60;34.33;;;;;;;11.12;51.34;99654.91;2095669;85;20959;-83
2022/03/26 07:30:39;;;;;;;63.37;36.23;;;;;;;11.17;50.59;99650.67;2093859;85;20987;-82
2022/03/26 07:33:40;;;;;;;64.70;35.87;;;;;;;11.26;51.26;99645.64;2093617;85;21104;-83
2022/03/26 07:36:40;;;;;;;66.03;33.67;;;;;;;11.46;50.65;99646.10;2093904;84;21007;-83
2022/03/26 07:39:41;;;;;;;66.77;34.67;;;;;;;11.58;50.16;99646.36;2091766;85;20975;-82
2022/03/26 07:42:43;;;;;;;58.80;34.60;;;;;;;11.71;50.08;99648.37;2081303;84;21050;-83
2022/03/26 07:45:44;;;;;;;59.08;33.45;;;;;;;11.93;49.80;99643.59;2103774;85;20963;-83
2022/03/26 07:48:45;;;;;;;50.25;32.13;;;;;;;12.10;49.45;99640.43;2105145;84;21014;-82
2022/03/26 07:51:45;;;;;;;55.92;32.95;;;;;;;12.21;48.83;99641.09;2104417;85;20998;-83
2022/03/26 07:54:48;;;;;;;50.30;29.52;;;;;;;12.32;48.87;99631.26;2103364;84;20967;-82
2022/03/26 07:57:49;;;;;;;68.47;33.23;;;;;;;12.42;48.91;99624.44;2109449;84;21338;-81
2022/03/26 08:00:49;;;;;;;56.40;33.35;;;;;;;12.38;48.81;99632.67;2113326;84;20995;-83
2022/03/26 08:03:54;;;;;;;57.03;33.88;;;;;;;12.52;49.03;99631.59;2113771;84;21065;-82
2022/03/26 08:06:52;;;;;;;54.63;33.42;;;;;;;12.74;48.70;99632.39;2101341;84;21101;-81
2022/03/26 08:09:53;;;;;;;73.97;33.70;;;;;;;12.92;48.39;99630.91;2095593;84;20982;-82
2022/03/26 08:12:54;;;;;;;54.88;31.07;;;;;;;13.03;47.72;99628.05;2108413;84;21025;-82
2022/03/26 08:15:57;;;;;;;66.92;33.65;;;;;;;13.12;47.90;99629.48;2099205;84;21094;-82
2022/03/26 08:18:57;;;;;;;61.25;33.28;;;;;;;13.32;48.39;99621.92;2108672;83;21015;-82
2022/03/26 08:21:57;;;;;;;58.95;32.45;;;;;;;13.50;47.11;99610.78;2110564;83;20943;-81
2022/03/26 08:24:58;;;;;;;57.85;31.45;;;;;;;13.57;46.71;99616.55;2119375;84;21006;-82
2022/03/26 08:27:59;;;;;;;63.00;32.85;;;;;;;13.67;46.60;99607.93;2109555;84;20998;-81
2022/03/26 08:30:59;;;;;;;62.03;33.33;;;;;;;13.73;46.51;99611.05;2119870;84;20967;-81
2022/03/26 08:34:00;;;;;;;57.50;30.70;;;;;;;13.82;45.86;99610.72;2095838;84;21042;-81
2022/03/26 08:37:01;;;;;;;130.70;34.43;;;;;;;13.95;45.75;99615.70;2114527;84;21052;-81
2022/03/26 08:40:03;;;;;;;153.35;36.55;;;;;;;14.01;45.74;99609.20;2091398;84;21055;-82
2022/03/26 08:43:04;;;;;;;63.02;32.70;;;;;;;14.11;44.64;99616.31;2111276;84;21103;-82
2022/03/26 08:46:04;;;;;;;55.10;31.33;;;;;;;14.11;44.57;99606.24;2091786;85;21111;-81
2022/03/26 08:49:05;;;;;;;79.85;34.33;;;;;;;14.30;44.43;99610.80;2104338;84;21377;-80
2022/03/26 08:52:06;;;;;;;63.65;30.80;;;;;;;14.31;43.99;99616.50;2117203;84;21037;-82
2022/03/26 08:55:08;;;;;;;75.55;32.13;;;;;;;14.43;43.82;99609.19;2112135;84;21034;-80
2022/03/26 08:58:09;;;;;;;115.03;33.00;;;;;;;14.49;43.07;99607.50;2108760;84;21050;-82
2022/03/26 09:01:10;;;;;;;61.25;30.77;;;;;;;14.60;43.34;99597.95;2115038;84;20994;-81
2022/03/26 09:04:12;;;;;;;146.25;32.75;;;;;;;14.80;42.68;99597.25;2086257;85;21045;-81
2022/03/26 09:07:13;;;;;;;82.90;29.77;;;;;;;14.86;41.67;99588.09;2108687;84;21057;-81
2022/03/26 09:10:14;;;;;;;83.22;28.10;;;;;;;14.88;41.52;99596.43;2098881;84;21066;-81
2022/03/26 09:13:15;;;;;;;89.15;28.07;;;;;;;14.94;40.34;99591.64;2117471;84;21017;-82
2022/03/26 09:16:15;;;;;;;57.25;24.12;;;;;;;15.02;40.41;99583.80;2103287;84;20983;-81
2022/03/26 09:19:16;;;;;;;53.92;23.38;;;;;;;15.18;40.05;99591.78;2099241;84;21031;-81
2022/03/26 09:22:16;;;;;;;91.78;24.23;;;;;;;15.27;39.51;99580.42;2091674;84;21003;-82
2022/03/26 09:25:18;;;;;;;102.70;27.50;;;;;;;15.31;38.85;99582.20;2106985;84;20959;-82
2022/03/26 09:28:19;;;;;;;94.45;23.67;;;;;;;15.42;39.18;99582.25;2108643;84;21054;-81
2022/03/26 09:31:19;;;;;;;116.62;23.80;;;;;;;15.46;38.53;99572.17;2094363;83;20966;-80
2022/03/26 09:34:20;;;;;;;81.85;20.85;;;;;;;15.60;38.35;99574.45;2092379;84;21405;-81
2022/03/26 09:37:20;;;;;;;72.85;23.80;;;;;;;15.77;37.94;99574.09;2090725;84;21362;-81
2022/03/26 09:40:22;;;;;;;152.25;26.00;;;;;;;15.69;37.25;99585.04;2091746;84;21007;-81
2022/03/26 09:43:22;;;;;;;138.77;26.55;;;;;;;15.55;37.22;99565.19;2091493;84;20999;-81
2022/03/26 09:46:24;;;;;;;57.83;22.00;;;;;;;15.54;37.97;99556.86;2101751;84;21014;-81
2022/03/26 09:49:24;;;;;;;49.77;20.65;;;;;;;15.78;37.25;99561.38;2112035;84;21038;-80
2022/03/26 09:52:25;;;;;;;41.45;20.72;;;;;;;15.96;36.57;99541.22;2118797;83;20995;-82
2022/03/26 09:55:25;;;;;;;41.20;20.10;;;;;;;15.92;36.40;99545.60;2112221;83;20970;-82
2022/03/26 09:58:26;;;;;;;39.98;19.55;;;;;;;15.99;36.94;99543.86;2113318;83;20971;-82
2022/03/26 10:01:26;;;;;;;42.15;18.30;;;;;;;16.08;36.01;99557.91;2119082;84;21378;-82
2022/03/26 10:04:27;;;;;;;41.37;16.52;;;;;;;16.09;36.19;99564.06;2120514;84;21057;-82
2022/03/26 10:07:28;;;;;;;62.27;19.52;;;;;;;16.24;36.00;99545.63;2115104;84;21041;-83
2022/03/26 10:10:29;;;;;;;76.37;21.37;;;;;;;16.25;35.83;99542.11;2122614;84;21030;-83
2022/03/26 10:13:30;;;;;;;53.52;19.32;;;;;;;16.25;36.06;99544.75;2118881;84;21510;-80
2022/03/26 10:16:30;;;;;;;36.65;18.65;;;;;;;16.25;35.82;99549.58;2115137;84;20949;-81
2022/03/26 10:19:31;;;;;;;75.15;19.25;;;;;;;16.35;35.84;99549.14;2115028;83;20947;-82
2022/03/26 10:22:31;;;;;;;41.88;17.77;;;;;;;16.32;35.63;99548.27;2112215;83;21255;-81
2022/03/26 10:25:32;;;;;;;53.78;19.05;;;;;;;16.56;34.87;99528.08;2117931;84;21009;-81
2022/03/26 10:28:32;;;;;;;36.55;17.32;;;;;;;16.56;34.87;99528.08;2110902;83;21034;-81
2022/03/26 10:34:52;;;;;;;44.83;18.50;;;;;;;16.62;35.30;99530.27;2109025;84;21101;-82
2022/03/26 10:37:58;;;;;;;50.15;19.23;;;;;;;16.59;34.66;99522.36;2117147;84;20982;-82
2022/03/26 10:40:59;;;;;;;278.83;31.60;;;;;;;16.72;34.99;99515.78;2119596;84;21105;-83
2022/03/26 10:44:00;;;;;;;43.80;18.82;;;;;;;16.77;34.58;99519.28;2114312;84;21006;-82
2022/03/26 10:47:01;;;;;;;39.80;16.55;;;;;;;16.77;34.51;99515.77;2119026;84;21024;-83
2022/03/26 10:50:02;;;;;;;41.85;16.48;;;;;;;16.94;34.31;99507.37;2119746;83;21017;-82
2022/03/26 10:53:03;;;;;;;44.18;17.05;;;;;;;17.05;34.41;99501.61;2110162;84;21354;-82
2022/03/26 10:56:03;;;;;;;31.23;14.55;;;;;;;17.02;33.66;99508.66;2109326;84;21017;-81
2022/03/26 10:59:04;;;;;;;60.55;16.62;;;;;;;16.94;33.42;99503.85;2100291;83;21014;-83
2022/03/26 11:02:04;;;;;;;35.33;14.13;;;;;;;17.01;33.90;99495.91;2106856;84;21406;-82
2022/03/26 11:05:05;;;;;;;35.13;13.98;;;;;;;17.06;33.34;99488.86;2117557;84;21045;-82
2022/03/26 11:08:05;;;;;;;92.47;18.30;;;;;;;17.08;33.35;99494.12;2118714;84;21352;-82
2022/03/26 11:11:06;;;;;;;117.62;18.12;;;;;;;17.02;32.75;99488.44;2109031;84;20974;-82
2022/03/26 11:14:07;;;;;;;42.53;14.15;;;;;;;16.88;33.11;99490.25;2109282;84;21014;-82
2022/03/26 11:17:07;;;;;;;39.27;15.93;;;;;;;16.91;33.46;99474.41;2118907;84;21389;-82
2022/03/26 11:20:08;;;;;;;30.75;14.65;;;;;;;17.08;33.62;99485.77;2119050;84;21022;-81
2022/03/26 11:23:08;;;;;;;31.87;17.10;;;;;;;17.19;33.57;99472.53;2119637;83;21034;-81
2022/03/26 11:26:09;;;;;;;73.75;18.70;;;;;;;17.46;34.06;99466.27;2118451;84;21041;-82
2022/03/26 11:29:10;;;;;;;43.05;18.05;;;;;;;17.59;33.36;99472.34;2119938;83;20976;-82
2022/03/26 11:32:11;;;;;;;32.30;17.40;;;;;;;17.85;33.22;99445.78;2107996;84;21034;-81
2022/03/26 11:35:12;;;;;;;44.30;18.00;;;;;;;17.85;33.22;99445.78;2107481;84;21503;-83
2022/03/26 11:38:12;;;;;;;78.62;17.75;;;;;;;18.01;33.10;99446.09;2109849;84;21041;-82
2022/03/26 11:41:13;;;;;;;28.20;14.15;;;;;;;18.06;32.90;99451.77;2119250;83;21001;-82
2022/03/26 11:44:14;;;;;;;38.28;15.48;;;;;;;18.10;32.22;99440.73;2120074;84;21022;-81
2022/03/26 11:50:42;;;;;;;32.17;14.05;;;;;;;18.23;32.62;99436.23;2107070;84;21393;-81
2022/03/26 11:53:44;;;;;;;21.85;11.93;;;;;;;18.27;32.63;99417.69;2115500;84;21050;-82
2022/03/26 11:56:47;;;;;;;25.12;11.53;;;;;;;18.53;31.15;99420.06;2099945;84;21081;-82
2022/03/26 11:59:47;;;;;;;26.25;12.50;;;;;;;18.74;31.00;99430.88;2102964;84;21101;-82
2022/03/26 12:02:49;;;;;;;29.27;13.88;;;;;;;18.65;30.81;99410.70;2107522;84;21002;-81
2022/03/26 12:09:10;;;;;;;39.65;13.75;;;;;;;18.83;30.95;99402.98;2111302;84;21082;-80
2022/03/26 12:12:11;;;;;;;28.27;12.78;;;;;;;18.50;30.95;99400.27;2108420;84;21047;-81
2022/03/26 12:15:12;;;;;;;22.27;13.75;;;;;;;18.46;31.58;99399.87;2114579;84;21038;-82
2022/03/26 12:18:13;;;;;;;31.37;14.20;;;;;;;18.52;31.29;99403.77;2092964;84;21029;-82
2022/03/26 12:21:14;;;;;;;28.07;13.95;;;;;;;18.33;31.58;99405.73;2116302;84;20989;-82
2022/03/26 12:24:14;;;;;;;27.73;13.00;;;;;;;18.17;31.53;99395.31;2110696;84;21027;-82
2022/03/26 12:27:15;;;;;;;38.30;13.75;;;;;;;18.08;31.95;99389.23;2102200;84;21065;-81
2022/03/26 12:30:16;;;;;;;31.37;13.38;;;;;;;17.89;32.25;99394.70;2117321;84;20998;-81
2022/03/26 12:33:17;;;;;;;26.23;14.35;;;;;;;17.71;32.80;99393.09;2112448;84;20971;-81
2022/03/26 12:36:17;;;;;;;30.40;14.00;;;;;;;17.72;33.19;99390.44;2116225;84;21026;-81
2022/03/26 12:39:17;;;;;;;35.55;15.13;;;;;;;17.70;33.03;99385.61;2093854;83;20966;-81
2022/03/26 12:42:18;;;;;;;38.55;14.68;;;;;;;17.58;33.51;99386.13;2092464;84;20983;-81
2022/03/26 12:45:18;;;;;;;75.22;15.80;;;;;;;17.56;33.63;99380.85;2091926;84;21034;-80
2022/03/26 12:48:22;;;;;;;44.38;14.15;;;;;;;17.67;33.52;99382.13;2101670;84;21486;-82
2022/03/26 12:51:22;;;;;;;65.35;12.65;;;;;;;17.72;33.77;99374.59;2092072;84;21074;-80
2022/03/26 12:54:23;;;;;;;25.52;12.70;;;;;;;17.71;34.13;99379.44;2092624;84;20983;-82
2022/03/26 12:57:24;;;;;;;30.97;12.05;;;;;;;17.60;33.64;99368.51;2092053;85;20991;-82
2022/03/26 13:00:24;;;;;;;26.62;13.10;;;;;;;17.54;33.89;99368.55;2099593;84;21417;-81
2022/03/26 13:03:25;;;;;;;24.20;10.90;;;;;;;17.46;34.27;99370.81;2098430;84;21002;-82
2022/03/26 13:06:25;;;;;;;23.85;11.75;;;;;;;17.22;34.96;99364.36;2104137;83;21024;-80
2022/03/26 13:09:26;;;;;;;23.45;11.93;;;;;;;17.22;34.96;99364.36;2115079;84;21058;-82
2022/03/26 13:12:26;;;;;;;31.15;13.80;;;;;;;17.16;35.24;99367.91;2112125;83;21022;-81
2022/03/26 13:15:27;;;;;;;27.02;13.80;;;;;;;16.94;35.59;99371.56;2090508;84;21690;-82
2022/03/26 13:18:27;;;;;;;50.30;13.08;;;;;;;16.80;36.05;99366.36;2090161;85;21023;-80
2022/03/26 13:21:28;;;;;;;27.20;12.03;;;;;;;16.69;36.53;99365.53;2090011;85;20994;-82
2022/03/26 13:24:28;;;;;;;34.18;10.28;;;;;;;16.50;36.71;99355.48;2095027;84;21010;-81
2022/03/26 13:27:29;;;;;;;26.75;9.25;;;;;;;16.30;37.98;99366.49;2111090;83;21042;-82
2022/03/26 13:30:29;;;;;;;13.70;8.90;;;;;;;16.02;38.47;99363.48;2105495;84;20982;-81
2022/03/26 13:33:30;;;;;;;18.52;9.30;;;;;;;15.86;38.29;99367.45;2119617;83;20987;-82
2022/03/26 13:36:31;;;;;;;24.67;8.50;;;;;;;15.83;38.55;99367.47;2121627;84;21018;-82
2022/03/26 13:39:31;;;;;;;11.57;7.80;;;;;;;15.78;38.82;99365.27;2110106;84;20997;-82
2022/03/26 13:42:32;;;;;;;12.40;6.40;;;;;;;15.74;38.76;99372.73;2111290;84;21001;-82
2022/03/26 13:45:32;;;;;;;13.50;6.20;;;;;;;15.73;38.62;99375.37;2112404;84;20995;-82
2022/03/26 13:48:33;;;;;;;95.80;61.60;;;;;;;15.72;38.57;99372.30;2116265;84;20998;-82
2022/03/26 13:51:33;;;;;;;104.32;46.10;;;;;;;15.68;38.70;99379.75;2113407;83;20975;-82
2022/03/26 13:54:34;;;;;;;123.47;77.75;;;;;;;15.58;38.81;99406.47;2114436;84;20959;-82
2022/03/26 13:57:35;;;;;;;74.10;36.50;;;;;;;15.37;39.27;99380.11;2116735;84;20954;-81
2022/03/26 14:00:35;;;;;;;85.45;42.83;;;;;;;15.37;39.27;99380.11;2113251;83;21011;-82
2022/03/26 14:03:36;;;;;;;132.30;72.62;;;;;;;15.26;39.82;99382.73;2120465;84;21031;-82